<?xml version="1.0" encoding="utf-8"?>
<gpx xmlns:xsi="http://www.w3.org/2001/XMLSchema-instance" xmlns:xsd="http://www.w3.org/2001/XMLSchema" version="1.1" creator="Shapelink.com" xmlns="http://www.topografix.com/GPX/1/1" xmlns:gpxtpx="http://www.garmin.com/xmlschemas/TrackPointExtension/v1">
  <metadata>
    <name>Running 6.77 km, 2012-06-20</name>
    <desc></desc>
    <author><name>David Ståhlman</name></author> 
    <time>2012-06-20T15:58:59Z</time>
  </metadata>
  <trk>
    <name>Running 6.77 km, 2012-06-20</name>
    <trkseg>
      <trkpt lat="60.1008526" lon="19.9296912">
        <ele>148.661</ele>
        <time>2012-06-20T15:58:59Z</time>
      </trkpt>
      <trkpt lat="60.100856" lon="19.9296678">
        <ele>148.18</ele>
        <time>2012-06-20T15:59:00Z</time>
      </trkpt>
      <trkpt lat="60.100892" lon="19.9294431">
        <ele>146.258</ele>
        <time>2012-06-20T15:59:05Z</time>
      </trkpt>
      <trkpt lat="60.1009798" lon="19.9291779">
        <ele>145.296</ele>
        <time>2012-06-20T15:59:11Z</time>
      </trkpt>
      <trkpt lat="60.1010835" lon="19.9290027">
        <ele>144.335</ele>
        <time>2012-06-20T15:59:16Z</time>
      </trkpt>
      <trkpt lat="60.1012499" lon="19.9289328">
        <ele>144.335</ele>
        <time>2012-06-20T15:59:22Z</time>
      </trkpt>
      <trkpt lat="60.101376" lon="19.9288094">
        <ele>144.335</ele>
        <time>2012-06-20T15:59:27Z</time>
      </trkpt>
      <trkpt lat="60.1015709" lon="19.9286451">
        <ele>145.777</ele>
        <time>2012-06-20T15:59:34Z</time>
      </trkpt>
      <trkpt lat="60.1017358" lon="19.9285266">
        <ele>144.816</ele>
        <time>2012-06-20T15:59:40Z</time>
      </trkpt>
      <trkpt lat="60.10188" lon="19.9283702">
        <ele>144.816</ele>
        <time>2012-06-20T15:59:46Z</time>
      </trkpt>
      <trkpt lat="60.1020013" lon="19.9282551">
        <ele>144.335</ele>
        <time>2012-06-20T15:59:51Z</time>
      </trkpt>
      <trkpt lat="60.1021721" lon="19.928095">
        <ele>142.893</ele>
        <time>2012-06-20T15:59:58Z</time>
      </trkpt>
      <trkpt lat="60.1022891" lon="19.9279562">
        <ele>143.854</ele>
        <time>2012-06-20T16:00:03Z</time>
      </trkpt>
      <trkpt lat="60.1024434" lon="19.9277821">
        <ele>142.893</ele>
        <time>2012-06-20T16:00:09Z</time>
      </trkpt>
      <trkpt lat="60.1026161" lon="19.9275984">
        <ele>141.932</ele>
        <time>2012-06-20T16:00:16Z</time>
      </trkpt>
      <trkpt lat="60.1027358" lon="19.9275176">
        <ele>140.97</ele>
        <time>2012-06-20T16:00:21Z</time>
      </trkpt>
      <trkpt lat="60.1028837" lon="19.9273141">
        <ele>141.932</ele>
        <time>2012-06-20T16:00:27Z</time>
      </trkpt>
      <trkpt lat="60.1030278" lon="19.9271709">
        <ele>143.374</ele>
        <time>2012-06-20T16:00:32Z</time>
      </trkpt>
      <trkpt lat="60.1032155" lon="19.9270883">
        <ele>143.854</ele>
        <time>2012-06-20T16:00:38Z</time>
      </trkpt>
      <trkpt lat="60.1033665" lon="19.9270643">
        <ele>142.893</ele>
        <time>2012-06-20T16:00:43Z</time>
      </trkpt>
      <trkpt lat="60.1035155" lon="19.9270383">
        <ele>142.412</ele>
        <time>2012-06-20T16:00:48Z</time>
      </trkpt>
      <trkpt lat="60.1037056" lon="19.9269675">
        <ele>143.854</ele>
        <time>2012-06-20T16:00:54Z</time>
      </trkpt>
      <trkpt lat="60.1038662" lon="19.9268986">
        <ele>144.816</ele>
        <time>2012-06-20T16:00:59Z</time>
      </trkpt>
      <trkpt lat="60.1039241" lon="19.9268688">
        <ele>145.777</ele>
        <time>2012-06-20T16:01:01Z</time>
      </trkpt>
      <trkpt lat="60.1040063" lon="19.9270068">
        <ele>146.738</ele>
        <time>2012-06-20T16:01:05Z</time>
      </trkpt>
      <trkpt lat="60.1040106" lon="19.9271275">
        <ele>147.219</ele>
        <time>2012-06-20T16:01:07Z</time>
      </trkpt>
      <trkpt lat="60.1040022" lon="19.9275274">
        <ele>152.026</ele>
        <time>2012-06-20T16:01:14Z</time>
      </trkpt>
      <trkpt lat="60.1040174" lon="19.9277744">
        <ele>152.987</ele>
        <time>2012-06-20T16:01:19Z</time>
      </trkpt>
      <trkpt lat="60.1039681" lon="19.9279868">
        <ele>153.468</ele>
        <time>2012-06-20T16:01:23Z</time>
      </trkpt>
      <trkpt lat="60.10395" lon="19.9280302">
        <ele>153.948</ele>
        <time>2012-06-20T16:01:24Z</time>
      </trkpt>
      <trkpt lat="60.1038982" lon="19.9283609">
        <ele>156.832</ele>
        <time>2012-06-20T16:01:30Z</time>
      </trkpt>
      <trkpt lat="60.1038479" lon="19.9286775">
        <ele>161.158</ele>
        <time>2012-06-20T16:01:35Z</time>
      </trkpt>
      <trkpt lat="60.1038899" lon="19.9288319">
        <ele>156.832</ele>
        <time>2012-06-20T16:01:39Z</time>
      </trkpt>
      <trkpt lat="60.1039547" lon="19.9290328">
        <ele>152.987</ele>
        <time>2012-06-20T16:01:44Z</time>
      </trkpt>
      <trkpt lat="60.1039883" lon="19.9292574">
        <ele>152.987</ele>
        <time>2012-06-20T16:01:49Z</time>
      </trkpt>
      <trkpt lat="60.1039785" lon="19.9294247">
        <ele>149.142</ele>
        <time>2012-06-20T16:01:54Z</time>
      </trkpt>
      <trkpt lat="60.104008" lon="19.9295368">
        <ele>149.142</ele>
        <time>2012-06-20T16:01:58Z</time>
      </trkpt>
      <trkpt lat="60.1040726" lon="19.9297414">
        <ele>146.258</ele>
        <time>2012-06-20T16:02:03Z</time>
      </trkpt>
      <trkpt lat="60.1040806" lon="19.9298823">
        <ele>147.7</ele>
        <time>2012-06-20T16:02:05Z</time>
      </trkpt>
      <trkpt lat="60.1040919" lon="19.9304143">
        <ele>145.777</ele>
        <time>2012-06-20T16:02:09Z</time>
      </trkpt>
      <trkpt lat="60.104093" lon="19.9304956">
        <ele>142.893</ele>
        <time>2012-06-20T16:02:11Z</time>
      </trkpt>
      <trkpt lat="60.1041307" lon="19.9305283">
        <ele>135.683</ele>
        <time>2012-06-20T16:02:15Z</time>
      </trkpt>
      <trkpt lat="60.1041671" lon="19.9305625">
        <ele>130.877</ele>
        <time>2012-06-20T16:02:18Z</time>
      </trkpt>
      <trkpt lat="60.1041878" lon="19.9305846">
        <ele>125.589</ele>
        <time>2012-06-20T16:02:21Z</time>
      </trkpt>
      <trkpt lat="60.1042399" lon="19.9306838">
        <ele>118.86</ele>
        <time>2012-06-20T16:02:26Z</time>
      </trkpt>
      <trkpt lat="60.1042795" lon="19.9307509">
        <ele>115.015</ele>
        <time>2012-06-20T16:02:30Z</time>
      </trkpt>
      <trkpt lat="60.1043611" lon="19.9308738">
        <ele>110.208</ele>
        <time>2012-06-20T16:02:35Z</time>
      </trkpt>
      <trkpt lat="60.1044889" lon="19.9310824">
        <ele>106.844</ele>
        <time>2012-06-20T16:02:41Z</time>
      </trkpt>
      <trkpt lat="60.104544" lon="19.9312435">
        <ele>106.363</ele>
        <time>2012-06-20T16:02:45Z</time>
      </trkpt>
      <trkpt lat="60.1046872" lon="19.9314529">
        <ele>105.882</ele>
        <time>2012-06-20T16:02:51Z</time>
      </trkpt>
      <trkpt lat="60.1048304" lon="19.9316459">
        <ele>104.921</ele>
        <time>2012-06-20T16:02:57Z</time>
      </trkpt>
      <trkpt lat="60.104925" lon="19.9317793">
        <ele>103.479</ele>
        <time>2012-06-20T16:03:01Z</time>
      </trkpt>
      <trkpt lat="60.1051057" lon="19.9319968">
        <ele>102.518</ele>
        <time>2012-06-20T16:03:07Z</time>
      </trkpt>
      <trkpt lat="60.1052611" lon="19.9321834">
        <ele>102.037</ele>
        <time>2012-06-20T16:03:12Z</time>
      </trkpt>
      <trkpt lat="60.1054042" lon="19.9323297">
        <ele>102.998</ele>
        <time>2012-06-20T16:03:17Z</time>
      </trkpt>
      <trkpt lat="60.1055465" lon="19.9325092">
        <ele>102.998</ele>
        <time>2012-06-20T16:03:22Z</time>
      </trkpt>
      <trkpt lat="60.1056517" lon="19.9327306">
        <ele>102.518</ele>
        <time>2012-06-20T16:03:27Z</time>
      </trkpt>
      <trkpt lat="60.1057618" lon="19.9329739">
        <ele>102.998</ele>
        <time>2012-06-20T16:03:33Z</time>
      </trkpt>
      <trkpt lat="60.1058843" lon="19.9331347">
        <ele>104.921</ele>
        <time>2012-06-20T16:03:38Z</time>
      </trkpt>
      <trkpt lat="60.1059894" lon="19.9332586">
        <ele>105.882</ele>
        <time>2012-06-20T16:03:42Z</time>
      </trkpt>
      <trkpt lat="60.1061343" lon="19.9333772">
        <ele>106.844</ele>
        <time>2012-06-20T16:03:47Z</time>
      </trkpt>
      <trkpt lat="60.1063009" lon="19.9334214">
        <ele>107.805</ele>
        <time>2012-06-20T16:03:52Z</time>
      </trkpt>
      <trkpt lat="60.1064794" lon="19.9335172">
        <ele>107.805</ele>
        <time>2012-06-20T16:03:58Z</time>
      </trkpt>
      <trkpt lat="60.1066528" lon="19.9335199">
        <ele>106.844</ele>
        <time>2012-06-20T16:04:04Z</time>
      </trkpt>
      <trkpt lat="60.1068255" lon="19.9334478">
        <ele>113.092</ele>
        <time>2012-06-20T16:04:09Z</time>
      </trkpt>
      <trkpt lat="60.1070222" lon="19.9334114">
        <ele>116.457</ele>
        <time>2012-06-20T16:04:15Z</time>
      </trkpt>
      <trkpt lat="60.1071832" lon="19.9333623">
        <ele>119.341</ele>
        <time>2012-06-20T16:04:20Z</time>
      </trkpt>
      <trkpt lat="60.1073958" lon="19.9333414">
        <ele>119.821</ele>
        <time>2012-06-20T16:04:26Z</time>
      </trkpt>
      <trkpt lat="60.1075546" lon="19.9333503">
        <ele>116.938</ele>
        <time>2012-06-20T16:04:31Z</time>
      </trkpt>
      <trkpt lat="60.1077263" lon="19.933317">
        <ele>116.457</ele>
        <time>2012-06-20T16:04:36Z</time>
      </trkpt>
      <trkpt lat="60.1079268" lon="19.9332518">
        <ele>117.899</ele>
        <time>2012-06-20T16:04:42Z</time>
      </trkpt>
      <trkpt lat="60.108118" lon="19.9332202">
        <ele>116.938</ele>
        <time>2012-06-20T16:04:48Z</time>
      </trkpt>
      <trkpt lat="60.1082836" lon="19.9332189">
        <ele>114.534</ele>
        <time>2012-06-20T16:04:53Z</time>
      </trkpt>
      <trkpt lat="60.1084546" lon="19.9331789">
        <ele>113.092</ele>
        <time>2012-06-20T16:04:58Z</time>
      </trkpt>
      <trkpt lat="60.1086244" lon="19.9332062">
        <ele>108.766</ele>
        <time>2012-06-20T16:05:04Z</time>
      </trkpt>
      <trkpt lat="60.1087503" lon="19.9332038">
        <ele>105.882</ele>
        <time>2012-06-20T16:05:09Z</time>
      </trkpt>
      <trkpt lat="60.1089374" lon="19.9331763">
        <ele>106.363</ele>
        <time>2012-06-20T16:05:15Z</time>
      </trkpt>
      <trkpt lat="60.1091121" lon="19.9331758">
        <ele>106.844</ele>
        <time>2012-06-20T16:05:20Z</time>
      </trkpt>
      <trkpt lat="60.1092788" lon="19.9331302">
        <ele>108.286</ele>
        <time>2012-06-20T16:05:25Z</time>
      </trkpt>
      <trkpt lat="60.1094352" lon="19.9331344">
        <ele>105.882</ele>
        <time>2012-06-20T16:05:30Z</time>
      </trkpt>
      <trkpt lat="60.1096062" lon="19.9331074">
        <ele>108.286</ele>
        <time>2012-06-20T16:05:35Z</time>
      </trkpt>
      <trkpt lat="60.1098253" lon="19.9330891">
        <ele>106.844</ele>
        <time>2012-06-20T16:05:41Z</time>
      </trkpt>
      <trkpt lat="60.1100641" lon="19.9330529">
        <ele>106.844</ele>
        <time>2012-06-20T16:05:47Z</time>
      </trkpt>
      <trkpt lat="60.110221" lon="19.9330992">
        <ele>104.44</ele>
        <time>2012-06-20T16:05:52Z</time>
      </trkpt>
      <trkpt lat="60.1103511" lon="19.9332038">
        <ele>101.556</ele>
        <time>2012-06-20T16:05:56Z</time>
      </trkpt>
      <trkpt lat="60.1106402" lon="19.9332271">
        <ele>103.479</ele>
        <time>2012-06-20T16:06:04Z</time>
      </trkpt>
      <trkpt lat="60.1107924" lon="19.9332505">
        <ele>101.556</ele>
        <time>2012-06-20T16:06:09Z</time>
      </trkpt>
      <trkpt lat="60.110954" lon="19.9332545">
        <ele>101.556</ele>
        <time>2012-06-20T16:06:14Z</time>
      </trkpt>
      <trkpt lat="60.1111223" lon="19.9332471">
        <ele>103.96</ele>
        <time>2012-06-20T16:06:19Z</time>
      </trkpt>
      <trkpt lat="60.1112814" lon="19.9332723">
        <ele>104.921</ele>
        <time>2012-06-20T16:06:24Z</time>
      </trkpt>
      <trkpt lat="60.1114102" lon="19.9332231">
        <ele>107.805</ele>
        <time>2012-06-20T16:06:29Z</time>
      </trkpt>
      <trkpt lat="60.1115797" lon="19.9331167">
        <ele>106.844</ele>
        <time>2012-06-20T16:06:35Z</time>
      </trkpt>
      <trkpt lat="60.1117621" lon="19.9330164">
        <ele>105.402</ele>
        <time>2012-06-20T16:06:41Z</time>
      </trkpt>
      <trkpt lat="60.1118641" lon="19.9329385">
        <ele>103.479</ele>
        <time>2012-06-20T16:06:46Z</time>
      </trkpt>
      <trkpt lat="60.1119351" lon="19.9329058">
        <ele>103.479</ele>
        <time>2012-06-20T16:06:48Z</time>
      </trkpt>
      <trkpt lat="60.1123101" lon="19.9329608">
        <ele>92.424</ele>
        <time>2012-06-20T16:10:54Z</time>
      </trkpt>
      <trkpt lat="60.1124671" lon="19.9329322">
        <ele>88.098</ele>
        <time>2012-06-20T16:11:00Z</time>
      </trkpt>
      <trkpt lat="60.1126438" lon="19.9328845">
        <ele>87.6172</ele>
        <time>2012-06-20T16:11:05Z</time>
      </trkpt>
      <trkpt lat="60.1128551" lon="19.9328407">
        <ele>87.6172</ele>
        <time>2012-06-20T16:11:11Z</time>
      </trkpt>
      <trkpt lat="60.1130385" lon="19.9327742">
        <ele>87.6172</ele>
        <time>2012-06-20T16:11:17Z</time>
      </trkpt>
      <trkpt lat="60.1131929" lon="19.9327451">
        <ele>88.098</ele>
        <time>2012-06-20T16:11:22Z</time>
      </trkpt>
      <trkpt lat="60.1133403" lon="19.9327622">
        <ele>88.098</ele>
        <time>2012-06-20T16:11:27Z</time>
      </trkpt>
      <trkpt lat="60.1135114" lon="19.9327358">
        <ele>90.9819</ele>
        <time>2012-06-20T16:11:32Z</time>
      </trkpt>
      <trkpt lat="60.1137161" lon="19.9326928">
        <ele>93.3851</ele>
        <time>2012-06-20T16:11:38Z</time>
      </trkpt>
      <trkpt lat="60.1139077" lon="19.9326645">
        <ele>96.7499</ele>
        <time>2012-06-20T16:11:45Z</time>
      </trkpt>
      <trkpt lat="60.1140199" lon="19.9325183">
        <ele>91.9432</ele>
        <time>2012-06-20T16:11:50Z</time>
      </trkpt>
      <trkpt lat="60.1141707" lon="19.9324432">
        <ele>91.9432</ele>
        <time>2012-06-20T16:11:55Z</time>
      </trkpt>
      <trkpt lat="60.114207" lon="19.9324365">
        <ele>93.3851</ele>
        <time>2012-06-20T16:11:56Z</time>
      </trkpt>
      <trkpt lat="60.1142611" lon="19.9327546">
        <ele>86.656</ele>
        <time>2012-06-20T16:12:01Z</time>
      </trkpt>
      <trkpt lat="60.1143535" lon="19.9332385">
        <ele>86.656</ele>
        <time>2012-06-20T16:12:09Z</time>
      </trkpt>
      <trkpt lat="60.1144262" lon="19.9336455">
        <ele>87.1366</ele>
        <time>2012-06-20T16:12:16Z</time>
      </trkpt>
      <trkpt lat="60.114473" lon="19.933928">
        <ele>88.5787</ele>
        <time>2012-06-20T16:12:21Z</time>
      </trkpt>
      <trkpt lat="60.1145144" lon="19.9342536">
        <ele>90.9819</ele>
        <time>2012-06-20T16:12:27Z</time>
      </trkpt>
      <trkpt lat="60.1145638" lon="19.934458">
        <ele>94.8271</ele>
        <time>2012-06-20T16:12:33Z</time>
      </trkpt>
      <trkpt lat="60.1146713" lon="19.9345211">
        <ele>94.8271</ele>
        <time>2012-06-20T16:12:37Z</time>
      </trkpt>
      <trkpt lat="60.1148071" lon="19.9346035">
        <ele>94.3466</ele>
        <time>2012-06-20T16:12:42Z</time>
      </trkpt>
      <trkpt lat="60.1149101" lon="19.9347107">
        <ele>93.8658</ele>
        <time>2012-06-20T16:12:46Z</time>
      </trkpt>
      <trkpt lat="60.1149266" lon="19.9349196">
        <ele>91.9432</ele>
        <time>2012-06-20T16:12:50Z</time>
      </trkpt>
      <trkpt lat="60.1149519" lon="19.9352602">
        <ele>93.3851</ele>
        <time>2012-06-20T16:12:56Z</time>
      </trkpt>
      <trkpt lat="60.1149089" lon="19.935608">
        <ele>92.424</ele>
        <time>2012-06-20T16:13:02Z</time>
      </trkpt>
      <trkpt lat="60.1148876" lon="19.9359192">
        <ele>89.5399</ele>
        <time>2012-06-20T16:13:07Z</time>
      </trkpt>
      <trkpt lat="60.1148798" lon="19.9362677">
        <ele>86.1753</ele>
        <time>2012-06-20T16:13:13Z</time>
      </trkpt>
      <trkpt lat="60.11485" lon="19.9367321">
        <ele>81.3688</ele>
        <time>2012-06-20T16:13:21Z</time>
      </trkpt>
      <trkpt lat="60.1147986" lon="19.9370615">
        <ele>74.6395</ele>
        <time>2012-06-20T16:13:26Z</time>
      </trkpt>
      <trkpt lat="60.1147381" lon="19.9373831">
        <ele>66.949</ele>
        <time>2012-06-20T16:13:31Z</time>
      </trkpt>
      <trkpt lat="60.1147003" lon="19.9377064">
        <ele>63.5844</ele>
        <time>2012-06-20T16:13:36Z</time>
      </trkpt>
      <trkpt lat="60.1147178" lon="19.938085">
        <ele>62.1423</ele>
        <time>2012-06-20T16:13:42Z</time>
      </trkpt>
      <trkpt lat="60.1147255" lon="19.9383874">
        <ele>58.7777</ele>
        <time>2012-06-20T16:13:47Z</time>
      </trkpt>
      <trkpt lat="60.1147785" lon="19.9386321">
        <ele>53.9712</ele>
        <time>2012-06-20T16:13:52Z</time>
      </trkpt>
      <trkpt lat="60.1148835" lon="19.9387816">
        <ele>50.126</ele>
        <time>2012-06-20T16:13:57Z</time>
      </trkpt>
      <trkpt lat="60.1149519" lon="19.9388502">
        <ele>47.2418</ele>
        <time>2012-06-20T16:14:00Z</time>
      </trkpt>
      <trkpt lat="60.1149675" lon="19.9390704">
        <ele>41.9547</ele>
        <time>2012-06-20T16:14:04Z</time>
      </trkpt>
      <trkpt lat="60.114877" lon="19.9393297">
        <ele>30.8995</ele>
        <time>2012-06-20T16:14:09Z</time>
      </trkpt>
      <trkpt lat="60.114785" lon="19.9395368">
        <ele>26.0929</ele>
        <time>2012-06-20T16:14:13Z</time>
      </trkpt>
      <trkpt lat="60.1147237" lon="19.9395985">
        <ele>24.1703</ele>
        <time>2012-06-20T16:14:15Z</time>
      </trkpt>
      <trkpt lat="60.1147082" lon="19.9397158">
        <ele>26.5736</ele>
        <time>2012-06-20T16:14:22Z</time>
      </trkpt>
      <trkpt lat="60.114647" lon="19.9398343">
        <ele>26.5736</ele>
        <time>2012-06-20T16:14:28Z</time>
      </trkpt>
      <trkpt lat="60.1145542" lon="19.9397695">
        <ele>26.0929</ele>
        <time>2012-06-20T16:14:32Z</time>
      </trkpt>
      <trkpt lat="60.1145203" lon="19.9396084">
        <ele>29.4575</ele>
        <time>2012-06-20T16:14:38Z</time>
      </trkpt>
      <trkpt lat="60.114482" lon="19.9397585">
        <ele>32.3416</ele>
        <time>2012-06-20T16:14:42Z</time>
      </trkpt>
      <trkpt lat="60.1144132" lon="19.9400621">
        <ele>34.2642</ele>
        <time>2012-06-20T16:14:48Z</time>
      </trkpt>
      <trkpt lat="60.1141116" lon="19.9404223">
        <ele>32.8223</ele>
        <time>2012-06-20T16:14:55Z</time>
      </trkpt>
      <trkpt lat="60.1140596" lon="19.9404699">
        <ele>32.8223</ele>
        <time>2012-06-20T16:14:56Z</time>
      </trkpt>
      <trkpt lat="60.1138703" lon="19.9406196">
        <ele>29.9381</ele>
        <time>2012-06-20T16:15:00Z</time>
      </trkpt>
      <trkpt lat="60.1137786" lon="19.9407004">
        <ele>29.9381</ele>
        <time>2012-06-20T16:15:02Z</time>
      </trkpt>
      <trkpt lat="60.113647" lon="19.9408173">
        <ele>30.4188</ele>
        <time>2012-06-20T16:15:05Z</time>
      </trkpt>
      <trkpt lat="60.1134154" lon="19.9410642">
        <ele>29.9381</ele>
        <time>2012-06-20T16:15:11Z</time>
      </trkpt>
      <trkpt lat="60.1133115" lon="19.9411548">
        <ele>28.9769</ele>
        <time>2012-06-20T16:15:14Z</time>
      </trkpt>
      <trkpt lat="60.1131581" lon="19.9413156">
        <ele>25.1317</ele>
        <time>2012-06-20T16:15:19Z</time>
      </trkpt>
      <trkpt lat="60.1129738" lon="19.9415133">
        <ele>20.8057</ele>
        <time>2012-06-20T16:15:25Z</time>
      </trkpt>
      <trkpt lat="60.1128271" lon="19.9416673">
        <ele>17.9218</ele>
        <time>2012-06-20T16:15:30Z</time>
      </trkpt>
      <trkpt lat="60.1126993" lon="19.9418245">
        <ele>15.5184</ele>
        <time>2012-06-20T16:15:35Z</time>
      </trkpt>
      <trkpt lat="60.1125757" lon="19.9420012">
        <ele>15.999</ele>
        <time>2012-06-20T16:15:40Z</time>
      </trkpt>
      <trkpt lat="60.112438" lon="19.9421489">
        <ele>19.3638</ele>
        <time>2012-06-20T16:15:45Z</time>
      </trkpt>
      <trkpt lat="60.1122167" lon="19.9421566">
        <ele>20.325</ele>
        <time>2012-06-20T16:15:52Z</time>
      </trkpt>
      <trkpt lat="60.1120289" lon="19.9421311">
        <ele>19.3638</ele>
        <time>2012-06-20T16:15:58Z</time>
      </trkpt>
      <trkpt lat="60.1117816" lon="19.9420758">
        <ele>16.4797</ele>
        <time>2012-06-20T16:16:06Z</time>
      </trkpt>
      <trkpt lat="60.1116138" lon="19.942089">
        <ele>18.8831</ele>
        <time>2012-06-20T16:16:12Z</time>
      </trkpt>
      <trkpt lat="60.1114511" lon="19.9420861">
        <ele>21.767</ele>
        <time>2012-06-20T16:16:18Z</time>
      </trkpt>
      <trkpt lat="60.1112662" lon="19.9421012">
        <ele>23.209</ele>
        <time>2012-06-20T16:16:24Z</time>
      </trkpt>
      <trkpt lat="60.1110912" lon="19.9420851">
        <ele>23.209</ele>
        <time>2012-06-20T16:16:29Z</time>
      </trkpt>
      <trkpt lat="60.1109613" lon="19.9420571">
        <ele>22.7283</ele>
        <time>2012-06-20T16:16:33Z</time>
      </trkpt>
      <trkpt lat="60.1108478" lon="19.9418131">
        <ele>20.8057</ele>
        <time>2012-06-20T16:16:39Z</time>
      </trkpt>
      <trkpt lat="60.1107897" lon="19.9417996">
        <ele>20.8057</ele>
        <time>2012-06-20T16:16:41Z</time>
      </trkpt>
      <trkpt lat="60.1106178" lon="19.941853">
        <ele>20.325</ele>
        <time>2012-06-20T16:16:47Z</time>
      </trkpt>
      <trkpt lat="60.1104898" lon="19.9420787">
        <ele>19.8444</ele>
        <time>2012-06-20T16:16:53Z</time>
      </trkpt>
      <trkpt lat="60.1104508" lon="19.9423301">
        <ele>17.4412</ele>
        <time>2012-06-20T16:16:58Z</time>
      </trkpt>
      <trkpt lat="60.1103877" lon="19.9425744">
        <ele>15.999</ele>
        <time>2012-06-20T16:17:03Z</time>
      </trkpt>
      <trkpt lat="60.1102703" lon="19.9427699">
        <ele>15.0377</ele>
        <time>2012-06-20T16:17:08Z</time>
      </trkpt>
      <trkpt lat="60.1101364" lon="19.9428345">
        <ele>14.0764</ele>
        <time>2012-06-20T16:17:13Z</time>
      </trkpt>
      <trkpt lat="60.1099407" lon="19.942847">
        <ele>12.6344</ele>
        <time>2012-06-20T16:17:20Z</time>
      </trkpt>
      <trkpt lat="60.1098096" lon="19.9428767">
        <ele>12.1538</ele>
        <time>2012-06-20T16:17:25Z</time>
      </trkpt>
      <trkpt lat="60.1096301" lon="19.9429392">
        <ele>14.557</ele>
        <time>2012-06-20T16:17:31Z</time>
      </trkpt>
      <trkpt lat="60.1094632" lon="19.9429843">
        <ele>14.557</ele>
        <time>2012-06-20T16:17:37Z</time>
      </trkpt>
      <trkpt lat="60.1092809" lon="19.9430144">
        <ele>14.0764</ele>
        <time>2012-06-20T16:17:43Z</time>
      </trkpt>
      <trkpt lat="60.1091135" lon="19.9430563">
        <ele>13.1151</ele>
        <time>2012-06-20T16:17:49Z</time>
      </trkpt>
      <trkpt lat="60.1089714" lon="19.9430978">
        <ele>12.6344</ele>
        <time>2012-06-20T16:17:54Z</time>
      </trkpt>
      <trkpt lat="60.1088255" lon="19.9431473">
        <ele>13.1151</ele>
        <time>2012-06-20T16:17:59Z</time>
      </trkpt>
      <trkpt lat="60.1086624" lon="19.9431936">
        <ele>13.1151</ele>
        <time>2012-06-20T16:18:05Z</time>
      </trkpt>
      <trkpt lat="60.1084897" lon="19.9432283">
        <ele>14.0764</ele>
        <time>2012-06-20T16:18:11Z</time>
      </trkpt>
      <trkpt lat="60.108407" lon="19.9432433">
        <ele>13.5958</ele>
        <time>2012-06-20T16:18:14Z</time>
      </trkpt>
      <trkpt lat="60.108367" lon="19.9433889">
        <ele>13.1151</ele>
        <time>2012-06-20T16:18:18Z</time>
      </trkpt>
      <trkpt lat="60.1083742" lon="19.9435578">
        <ele>12.1538</ele>
        <time>2012-06-20T16:18:21Z</time>
      </trkpt>
      <trkpt lat="60.1083384" lon="19.9438385">
        <ele>11.1925</ele>
        <time>2012-06-20T16:18:26Z</time>
      </trkpt>
      <trkpt lat="60.108206" lon="19.9439459">
        <ele>14.0764</ele>
        <time>2012-06-20T16:18:31Z</time>
      </trkpt>
      <trkpt lat="60.1080371" lon="19.944012">
        <ele>16.9604</ele>
        <time>2012-06-20T16:18:37Z</time>
      </trkpt>
      <trkpt lat="60.1078702" lon="19.9440727">
        <ele>19.8444</ele>
        <time>2012-06-20T16:18:43Z</time>
      </trkpt>
      <trkpt lat="60.1076744" lon="19.9441618">
        <ele>22.7283</ele>
        <time>2012-06-20T16:18:50Z</time>
      </trkpt>
      <trkpt lat="60.1075287" lon="19.9441892">
        <ele>22.7283</ele>
        <time>2012-06-20T16:18:55Z</time>
      </trkpt>
      <trkpt lat="60.1073736" lon="19.944224">
        <ele>24.1703</ele>
        <time>2012-06-20T16:19:01Z</time>
      </trkpt>
      <trkpt lat="60.1072201" lon="19.9442771">
        <ele>26.5736</ele>
        <time>2012-06-20T16:19:07Z</time>
      </trkpt>
      <trkpt lat="60.1071294" lon="19.9444398">
        <ele>26.0929</ele>
        <time>2012-06-20T16:19:12Z</time>
      </trkpt>
      <trkpt lat="60.1070762" lon="19.9446296">
        <ele>24.1703</ele>
        <time>2012-06-20T16:19:16Z</time>
      </trkpt>
      <trkpt lat="60.1069881" lon="19.944915">
        <ele>22.2476</ele>
        <time>2012-06-20T16:19:22Z</time>
      </trkpt>
      <trkpt lat="60.106886" lon="19.9450145">
        <ele>20.8057</ele>
        <time>2012-06-20T16:19:26Z</time>
      </trkpt>
      <trkpt lat="60.1067606" lon="19.9450525">
        <ele>17.4412</ele>
        <time>2012-06-20T16:19:31Z</time>
      </trkpt>
      <trkpt lat="60.1065876" lon="19.9450248">
        <ele>14.0764</ele>
        <time>2012-06-20T16:19:37Z</time>
      </trkpt>
      <trkpt lat="60.1064384" lon="19.9450148">
        <ele>12.1538</ele>
        <time>2012-06-20T16:19:42Z</time>
      </trkpt>
      <trkpt lat="60.106296" lon="19.9450066">
        <ele>9.75061</ele>
        <time>2012-06-20T16:19:47Z</time>
      </trkpt>
      <trkpt lat="60.1061579" lon="19.9449693">
        <ele>8.30859</ele>
        <time>2012-06-20T16:19:52Z</time>
      </trkpt>
      <trkpt lat="60.1060225" lon="19.9449505">
        <ele>8.78918</ele>
        <time>2012-06-20T16:19:57Z</time>
      </trkpt>
      <trkpt lat="60.1058279" lon="19.9448716">
        <ele>9.75061</ele>
        <time>2012-06-20T16:20:04Z</time>
      </trkpt>
      <trkpt lat="60.1056924" lon="19.9448067">
        <ele>10.7118</ele>
        <time>2012-06-20T16:20:09Z</time>
      </trkpt>
      <trkpt lat="60.1055262" lon="19.9447692">
        <ele>13.1151</ele>
        <time>2012-06-20T16:20:15Z</time>
      </trkpt>
      <trkpt lat="60.1053865" lon="19.9448119">
        <ele>16.9604</ele>
        <time>2012-06-20T16:20:20Z</time>
      </trkpt>
      <trkpt lat="60.1052181" lon="19.944851">
        <ele>17.9218</ele>
        <time>2012-06-20T16:20:26Z</time>
      </trkpt>
      <trkpt lat="60.105086" lon="19.9448562">
        <ele>17.4412</ele>
        <time>2012-06-20T16:20:31Z</time>
      </trkpt>
      <trkpt lat="60.1049258" lon="19.9449217">
        <ele>19.3638</ele>
        <time>2012-06-20T16:20:37Z</time>
      </trkpt>
      <trkpt lat="60.1047845" lon="19.9449845">
        <ele>19.8444</ele>
        <time>2012-06-20T16:20:42Z</time>
      </trkpt>
      <trkpt lat="60.1045898" lon="19.9450252">
        <ele>21.767</ele>
        <time>2012-06-20T16:20:49Z</time>
      </trkpt>
      <trkpt lat="60.10445" lon="19.9450627">
        <ele>23.209</ele>
        <time>2012-06-20T16:20:54Z</time>
      </trkpt>
      <trkpt lat="60.1043127" lon="19.9451108">
        <ele>24.651</ele>
        <time>2012-06-20T16:20:59Z</time>
      </trkpt>
      <trkpt lat="60.1041422" lon="19.9451512">
        <ele>27.0543</ele>
        <time>2012-06-20T16:21:05Z</time>
      </trkpt>
      <trkpt lat="60.1039407" lon="19.9451491">
        <ele>28.4962</ele>
        <time>2012-06-20T16:21:12Z</time>
      </trkpt>
      <trkpt lat="60.1038028" lon="19.9451181">
        <ele>28.9769</ele>
        <time>2012-06-20T16:21:17Z</time>
      </trkpt>
      <trkpt lat="60.1036637" lon="19.9451408">
        <ele>30.8995</ele>
        <time>2012-06-20T16:21:22Z</time>
      </trkpt>
      <trkpt lat="60.103502" lon="19.9452035">
        <ele>29.9381</ele>
        <time>2012-06-20T16:21:28Z</time>
      </trkpt>
      <trkpt lat="60.1033329" lon="19.9452463">
        <ele>28.9769</ele>
        <time>2012-06-20T16:21:34Z</time>
      </trkpt>
      <trkpt lat="60.1031733" lon="19.945286">
        <ele>28.9769</ele>
        <time>2012-06-20T16:21:40Z</time>
      </trkpt>
      <trkpt lat="60.1030056" lon="19.9453433">
        <ele>28.9769</ele>
        <time>2012-06-20T16:21:46Z</time>
      </trkpt>
      <trkpt lat="60.1028636" lon="19.9453951">
        <ele>28.9769</ele>
        <time>2012-06-20T16:21:51Z</time>
      </trkpt>
      <trkpt lat="60.1027198" lon="19.9454308">
        <ele>29.9381</ele>
        <time>2012-06-20T16:21:56Z</time>
      </trkpt>
      <trkpt lat="60.1025758" lon="19.9454729">
        <ele>31.3801</ele>
        <time>2012-06-20T16:22:01Z</time>
      </trkpt>
      <trkpt lat="60.102426" lon="19.9454981">
        <ele>34.7449</ele>
        <time>2012-06-20T16:22:06Z</time>
      </trkpt>
      <trkpt lat="60.1022585" lon="19.9455636">
        <ele>37.1481</ele>
        <time>2012-06-20T16:22:12Z</time>
      </trkpt>
      <trkpt lat="60.1021229" lon="19.9455982">
        <ele>37.6287</ele>
        <time>2012-06-20T16:22:17Z</time>
      </trkpt>
      <trkpt lat="60.1019518" lon="19.945651">
        <ele>38.5901</ele>
        <time>2012-06-20T16:22:23Z</time>
      </trkpt>
      <trkpt lat="60.1017884" lon="19.9457205">
        <ele>38.5901</ele>
        <time>2012-06-20T16:22:29Z</time>
      </trkpt>
      <trkpt lat="60.1016232" lon="19.9457729">
        <ele>40.0321</ele>
        <time>2012-06-20T16:22:35Z</time>
      </trkpt>
      <trkpt lat="60.1014526" lon="19.9458384">
        <ele>40.9934</ele>
        <time>2012-06-20T16:22:41Z</time>
      </trkpt>
      <trkpt lat="60.1012786" lon="19.9458843">
        <ele>41.474</ele>
        <time>2012-06-20T16:22:47Z</time>
      </trkpt>
      <trkpt lat="60.1011393" lon="19.9459332">
        <ele>42.4354</ele>
        <time>2012-06-20T16:22:52Z</time>
      </trkpt>
      <trkpt lat="60.1009731" lon="19.9458886">
        <ele>37.6287</ele>
        <time>2012-06-20T16:22:59Z</time>
      </trkpt>
      <trkpt lat="60.1008192" lon="19.9458891">
        <ele>35.7061</ele>
        <time>2012-06-20T16:23:05Z</time>
      </trkpt>
      <trkpt lat="60.1006387" lon="19.9459551">
        <ele>36.6675</ele>
        <time>2012-06-20T16:23:12Z</time>
      </trkpt>
      <trkpt lat="60.1005208" lon="19.9460261">
        <ele>38.1094</ele>
        <time>2012-06-20T16:23:16Z</time>
      </trkpt>
      <trkpt lat="60.1003799" lon="19.9461051">
        <ele>38.5901</ele>
        <time>2012-06-20T16:23:21Z</time>
      </trkpt>
      <trkpt lat="60.1002219" lon="19.9461976">
        <ele>39.5513</ele>
        <time>2012-06-20T16:23:27Z</time>
      </trkpt>
      <trkpt lat="60.1002017" lon="19.9462148">
        <ele>38.5901</ele>
        <time>2012-06-20T16:23:28Z</time>
      </trkpt>
      <trkpt lat="60.1000588" lon="19.9464116">
        <ele>37.1481</ele>
        <time>2012-06-20T16:23:35Z</time>
      </trkpt>
      <trkpt lat="60.0999617" lon="19.9465918">
        <ele>36.1868</ele>
        <time>2012-06-20T16:23:40Z</time>
      </trkpt>
      <trkpt lat="60.099861" lon="19.9466737">
        <ele>30.8995</ele>
        <time>2012-06-20T16:23:45Z</time>
      </trkpt>
      <trkpt lat="60.0997282" lon="19.9466965">
        <ele>27.5349</ele>
        <time>2012-06-20T16:23:50Z</time>
      </trkpt>
      <trkpt lat="60.0996192" lon="19.9466835">
        <ele>25.1317</ele>
        <time>2012-06-20T16:23:54Z</time>
      </trkpt>
      <trkpt lat="60.0994794" lon="19.9467095">
        <ele>22.2476</ele>
        <time>2012-06-20T16:23:59Z</time>
      </trkpt>
      <trkpt lat="60.0993098" lon="19.9468051">
        <ele>26.0929</ele>
        <time>2012-06-20T16:24:05Z</time>
      </trkpt>
      <trkpt lat="60.0991362" lon="19.9468958">
        <ele>29.4575</ele>
        <time>2012-06-20T16:24:11Z</time>
      </trkpt>
      <trkpt lat="60.098963" lon="19.9469745">
        <ele>31.8607</ele>
        <time>2012-06-20T16:24:17Z</time>
      </trkpt>
      <trkpt lat="60.098821" lon="19.9470362">
        <ele>33.7834</ele>
        <time>2012-06-20T16:24:22Z</time>
      </trkpt>
      <trkpt lat="60.0986482" lon="19.9471153">
        <ele>35.7061</ele>
        <time>2012-06-20T16:24:28Z</time>
      </trkpt>
      <trkpt lat="60.0984809" lon="19.9471398">
        <ele>36.1868</ele>
        <time>2012-06-20T16:24:34Z</time>
      </trkpt>
      <trkpt lat="60.098457" lon="19.9471638">
        <ele>36.1868</ele>
        <time>2012-06-20T16:24:35Z</time>
      </trkpt>
      <trkpt lat="60.0983952" lon="19.9473947">
        <ele>34.2642</ele>
        <time>2012-06-20T16:24:40Z</time>
      </trkpt>
      <trkpt lat="60.0983115" lon="19.9475196">
        <ele>32.3416</ele>
        <time>2012-06-20T16:24:44Z</time>
      </trkpt>
      <trkpt lat="60.0981819" lon="19.9475914">
        <ele>29.9381</ele>
        <time>2012-06-20T16:24:49Z</time>
      </trkpt>
      <trkpt lat="60.09803" lon="19.9476956">
        <ele>28.0155</ele>
        <time>2012-06-20T16:24:55Z</time>
      </trkpt>
      <trkpt lat="60.0978694" lon="19.9477949">
        <ele>28.0155</ele>
        <time>2012-06-20T16:25:01Z</time>
      </trkpt>
      <trkpt lat="60.0977411" lon="19.9476928">
        <ele>18.8831</ele>
        <time>2012-06-20T16:25:07Z</time>
      </trkpt>
      <trkpt lat="60.097609" lon="19.9477526">
        <ele>16.4797</ele>
        <time>2012-06-20T16:25:12Z</time>
      </trkpt>
      <trkpt lat="60.0974779" lon="19.9478262">
        <ele>15.0377</ele>
        <time>2012-06-20T16:25:17Z</time>
      </trkpt>
      <trkpt lat="60.097327" lon="19.9479344">
        <ele>13.5958</ele>
        <time>2012-06-20T16:25:23Z</time>
      </trkpt>
      <trkpt lat="60.0971682" lon="19.9479931">
        <ele>12.1538</ele>
        <time>2012-06-20T16:25:29Z</time>
      </trkpt>
      <trkpt lat="60.0970086" lon="19.9480316">
        <ele>10.7118</ele>
        <time>2012-06-20T16:25:35Z</time>
      </trkpt>
      <trkpt lat="60.0968605" lon="19.9481119">
        <ele>9.2699</ele>
        <time>2012-06-20T16:25:41Z</time>
      </trkpt>
      <trkpt lat="60.0968432" lon="19.9481415">
        <ele>8.78918</ele>
        <time>2012-06-20T16:25:42Z</time>
      </trkpt>
      <trkpt lat="60.0968557" lon="19.9485211">
        <ele>7.82788</ele>
        <time>2012-06-20T16:25:49Z</time>
      </trkpt>
      <trkpt lat="60.0968764" lon="19.9488009">
        <ele>7.82788</ele>
        <time>2012-06-20T16:25:54Z</time>
      </trkpt>
      <trkpt lat="60.0968885" lon="19.9491615">
        <ele>8.30859</ele>
        <time>2012-06-20T16:26:00Z</time>
      </trkpt>
      <trkpt lat="60.0968926" lon="19.9494223">
        <ele>8.78918</ele>
        <time>2012-06-20T16:26:05Z</time>
      </trkpt>
      <trkpt lat="60.0968771" lon="19.9496972">
        <ele>8.30859</ele>
        <time>2012-06-20T16:26:10Z</time>
      </trkpt>
      <trkpt lat="60.0967997" lon="19.9499073">
        <ele>7.82788</ele>
        <time>2012-06-20T16:26:15Z</time>
      </trkpt>
      <trkpt lat="60.0967424" lon="19.950094">
        <ele>8.78918</ele>
        <time>2012-06-20T16:26:20Z</time>
      </trkpt>
      <trkpt lat="60.0966927" lon="19.9503772">
        <ele>9.2699</ele>
        <time>2012-06-20T16:26:26Z</time>
      </trkpt>
      <trkpt lat="60.0966413" lon="19.9505741">
        <ele>7.82788</ele>
        <time>2012-06-20T16:26:31Z</time>
      </trkpt>
      <trkpt lat="60.0964974" lon="19.9507478">
        <ele>7.82788</ele>
        <time>2012-06-20T16:26:37Z</time>
      </trkpt>
      <trkpt lat="60.0963622" lon="19.9507576">
        <ele>6.86646</ele>
        <time>2012-06-20T16:26:42Z</time>
      </trkpt>
      <trkpt lat="60.0962367" lon="19.950698">
        <ele>6.38586</ele>
        <time>2012-06-20T16:26:47Z</time>
      </trkpt>
      <trkpt lat="60.0961033" lon="19.9505917">
        <ele>3.98267</ele>
        <time>2012-06-20T16:26:53Z</time>
      </trkpt>
      <trkpt lat="60.0959328" lon="19.9506499">
        <ele>3.02124</ele>
        <time>2012-06-20T16:26:59Z</time>
      </trkpt>
      <trkpt lat="60.0958344" lon="19.9506927">
        <ele>2.54065</ele>
        <time>2012-06-20T16:27:03Z</time>
      </trkpt>
      <trkpt lat="60.0957022" lon="19.9507343">
        <ele>2.06006</ele>
        <time>2012-06-20T16:27:08Z</time>
      </trkpt>
      <trkpt lat="60.0955681" lon="19.9508323">
        <ele>1.57935</ele>
        <time>2012-06-20T16:27:13Z</time>
      </trkpt>
      <trkpt lat="60.0954179" lon="19.9510152">
        <ele>4.94385</ele>
        <time>2012-06-20T16:27:19Z</time>
      </trkpt>
      <trkpt lat="60.0952645" lon="19.9511636">
        <ele>9.2699</ele>
        <time>2012-06-20T16:27:24Z</time>
      </trkpt>
      <trkpt lat="60.0951092" lon="19.9513037">
        <ele>12.6344</ele>
        <time>2012-06-20T16:27:29Z</time>
      </trkpt>
      <trkpt lat="60.0949346" lon="19.9514273">
        <ele>13.1151</ele>
        <time>2012-06-20T16:27:35Z</time>
      </trkpt>
      <trkpt lat="60.094792" lon="19.9514855">
        <ele>11.6732</ele>
        <time>2012-06-20T16:27:40Z</time>
      </trkpt>
      <trkpt lat="60.0946042" lon="19.9515543">
        <ele>9.75061</ele>
        <time>2012-06-20T16:27:46Z</time>
      </trkpt>
      <trkpt lat="60.0944259" lon="19.9516252">
        <ele>8.30859</ele>
        <time>2012-06-20T16:27:52Z</time>
      </trkpt>
      <trkpt lat="60.0942786" lon="19.9516652">
        <ele>7.82788</ele>
        <time>2012-06-20T16:27:57Z</time>
      </trkpt>
      <trkpt lat="60.0941037" lon="19.9517185">
        <ele>7.82788</ele>
        <time>2012-06-20T16:28:03Z</time>
      </trkpt>
      <trkpt lat="60.093927" lon="19.9517575">
        <ele>7.34717</ele>
        <time>2012-06-20T16:28:09Z</time>
      </trkpt>
      <trkpt lat="60.0937248" lon="19.951805">
        <ele>7.34717</ele>
        <time>2012-06-20T16:28:16Z</time>
      </trkpt>
      <trkpt lat="60.0936091" lon="19.9518393">
        <ele>8.30859</ele>
        <time>2012-06-20T16:28:21Z</time>
      </trkpt>
      <trkpt lat="60.0934383" lon="19.9519364">
        <ele>8.78918</ele>
        <time>2012-06-20T16:28:27Z</time>
      </trkpt>
      <trkpt lat="60.0933183" lon="19.9519583">
        <ele>8.30859</ele>
        <time>2012-06-20T16:28:32Z</time>
      </trkpt>
      <trkpt lat="60.0931418" lon="19.9520224">
        <ele>7.34717</ele>
        <time>2012-06-20T16:28:39Z</time>
      </trkpt>
      <trkpt lat="60.0930163" lon="19.9520344">
        <ele>6.86646</ele>
        <time>2012-06-20T16:28:44Z</time>
      </trkpt>
      <trkpt lat="60.0928817" lon="19.9519546">
        <ele>6.38586</ele>
        <time>2012-06-20T16:28:50Z</time>
      </trkpt>
      <trkpt lat="60.0928153" lon="19.9518111">
        <ele>3.50195</ele>
        <time>2012-06-20T16:28:56Z</time>
      </trkpt>
      <trkpt lat="60.0928438" lon="19.9516447">
        <ele>3.98267</ele>
        <time>2012-06-20T16:29:01Z</time>
      </trkpt>
      <trkpt lat="60.0928998" lon="19.9514486">
        <ele>6.38586</ele>
        <time>2012-06-20T16:29:06Z</time>
      </trkpt>
      <trkpt lat="60.092962" lon="19.9512108">
        <ele>7.82788</ele>
        <time>2012-06-20T16:29:12Z</time>
      </trkpt>
      <trkpt lat="60.0929945" lon="19.9509709">
        <ele>10.7118</ele>
        <time>2012-06-20T16:29:17Z</time>
      </trkpt>
      <trkpt lat="60.0930309" lon="19.950684">
        <ele>13.1151</ele>
        <time>2012-06-20T16:29:22Z</time>
      </trkpt>
      <trkpt lat="60.0930455" lon="19.9503929">
        <ele>14.557</ele>
        <time>2012-06-20T16:29:27Z</time>
      </trkpt>
      <trkpt lat="60.0930733" lon="19.9501179">
        <ele>15.999</ele>
        <time>2012-06-20T16:29:32Z</time>
      </trkpt>
      <trkpt lat="60.0931491" lon="19.9498597">
        <ele>14.557</ele>
        <time>2012-06-20T16:29:37Z</time>
      </trkpt>
      <trkpt lat="60.0932348" lon="19.9496049">
        <ele>15.5184</ele>
        <time>2012-06-20T16:29:42Z</time>
      </trkpt>
      <trkpt lat="60.0933132" lon="19.9493399">
        <ele>16.9604</ele>
        <time>2012-06-20T16:29:47Z</time>
      </trkpt>
      <trkpt lat="60.093397" lon="19.9490585">
        <ele>19.3638</ele>
        <time>2012-06-20T16:29:52Z</time>
      </trkpt>
      <trkpt lat="60.093542" lon="19.948824">
        <ele>18.8831</ele>
        <time>2012-06-20T16:29:58Z</time>
      </trkpt>
      <trkpt lat="60.0937104" lon="19.9486489">
        <ele>18.4023</ele>
        <time>2012-06-20T16:30:04Z</time>
      </trkpt>
      <trkpt lat="60.0938704" lon="19.9483783">
        <ele>16.9604</ele>
        <time>2012-06-20T16:30:11Z</time>
      </trkpt>
      <trkpt lat="60.0939923" lon="19.948222">
        <ele>16.9604</ele>
        <time>2012-06-20T16:30:16Z</time>
      </trkpt>
      <trkpt lat="60.0941447" lon="19.9481102">
        <ele>15.5184</ele>
        <time>2012-06-20T16:30:21Z</time>
      </trkpt>
      <trkpt lat="60.0942346" lon="19.9480115">
        <ele>15.5184</ele>
        <time>2012-06-20T16:30:25Z</time>
      </trkpt>
      <trkpt lat="60.0943374" lon="19.9478634">
        <ele>15.999</ele>
        <time>2012-06-20T16:30:29Z</time>
      </trkpt>
      <trkpt lat="60.0944197" lon="19.9476989">
        <ele>16.4797</ele>
        <time>2012-06-20T16:30:34Z</time>
      </trkpt>
      <trkpt lat="60.0945226" lon="19.9475719">
        <ele>17.9218</ele>
        <time>2012-06-20T16:30:38Z</time>
      </trkpt>
      <trkpt lat="60.0946067" lon="19.9473967">
        <ele>18.4023</ele>
        <time>2012-06-20T16:30:42Z</time>
      </trkpt>
      <trkpt lat="60.0947114" lon="19.9471807">
        <ele>19.3638</ele>
        <time>2012-06-20T16:30:47Z</time>
      </trkpt>
      <trkpt lat="60.0948442" lon="19.9470456">
        <ele>19.3638</ele>
        <time>2012-06-20T16:30:52Z</time>
      </trkpt>
      <trkpt lat="60.0949577" lon="19.9469659">
        <ele>19.8444</ele>
        <time>2012-06-20T16:30:56Z</time>
      </trkpt>
      <trkpt lat="60.0951024" lon="19.9468885">
        <ele>17.9218</ele>
        <time>2012-06-20T16:31:01Z</time>
      </trkpt>
      <trkpt lat="60.0952682" lon="19.9467988">
        <ele>18.4023</ele>
        <time>2012-06-20T16:31:07Z</time>
      </trkpt>
      <trkpt lat="60.0953996" lon="19.9466793">
        <ele>19.3638</ele>
        <time>2012-06-20T16:31:13Z</time>
      </trkpt>
      <trkpt lat="60.0955337" lon="19.9464954">
        <ele>20.325</ele>
        <time>2012-06-20T16:31:18Z</time>
      </trkpt>
      <trkpt lat="60.0956256" lon="19.9462778">
        <ele>19.8444</ele>
        <time>2012-06-20T16:31:23Z</time>
      </trkpt>
      <trkpt lat="60.0957124" lon="19.9459857">
        <ele>17.4412</ele>
        <time>2012-06-20T16:31:29Z</time>
      </trkpt>
      <trkpt lat="60.0958117" lon="19.9457205">
        <ele>15.5184</ele>
        <time>2012-06-20T16:31:34Z</time>
      </trkpt>
      <trkpt lat="60.0959243" lon="19.9456232">
        <ele>14.557</ele>
        <time>2012-06-20T16:31:38Z</time>
      </trkpt>
      <trkpt lat="60.0960683" lon="19.9455336">
        <ele>15.0377</ele>
        <time>2012-06-20T16:31:43Z</time>
      </trkpt>
      <trkpt lat="60.0962119" lon="19.9455122">
        <ele>14.0764</ele>
        <time>2012-06-20T16:31:49Z</time>
      </trkpt>
      <trkpt lat="60.0963814" lon="19.9454926">
        <ele>14.0764</ele>
        <time>2012-06-20T16:31:54Z</time>
      </trkpt>
      <trkpt lat="60.0965186" lon="19.9454638">
        <ele>13.1151</ele>
        <time>2012-06-20T16:31:59Z</time>
      </trkpt>
      <trkpt lat="60.0965611" lon="19.9454419">
        <ele>12.1538</ele>
        <time>2012-06-20T16:32:01Z</time>
      </trkpt>
      <trkpt lat="60.0965967" lon="19.9451947">
        <ele>11.1925</ele>
        <time>2012-06-20T16:32:06Z</time>
      </trkpt>
      <trkpt lat="60.0965995" lon="19.9449507">
        <ele>10.2312</ele>
        <time>2012-06-20T16:32:10Z</time>
      </trkpt>
      <trkpt lat="60.0965942" lon="19.9448953">
        <ele>9.75061</ele>
        <time>2012-06-20T16:32:11Z</time>
      </trkpt>
      <trkpt lat="60.0965882" lon="19.94479">
        <ele>10.2312</ele>
        <time>2012-06-20T16:32:13Z</time>
      </trkpt>
      <trkpt lat="60.0966039" lon="19.9447026">
        <ele>10.2312</ele>
        <time>2012-06-20T16:32:15Z</time>
      </trkpt>
      <trkpt lat="60.0967336" lon="19.9445729">
        <ele>9.2699</ele>
        <time>2012-06-20T16:32:21Z</time>
      </trkpt>
      <trkpt lat="60.0969375" lon="19.944509">
        <ele>10.2312</ele>
        <time>2012-06-20T16:32:29Z</time>
      </trkpt>
      <trkpt lat="60.0970916" lon="19.9444632">
        <ele>11.1925</ele>
        <time>2012-06-20T16:32:34Z</time>
      </trkpt>
      <trkpt lat="60.097255" lon="19.9443861">
        <ele>11.1925</ele>
        <time>2012-06-20T16:32:40Z</time>
      </trkpt>
      <trkpt lat="60.097382" lon="19.9441733">
        <ele>6.38586</ele>
        <time>2012-06-20T16:32:45Z</time>
      </trkpt>
      <trkpt lat="60.0974709" lon="19.944096">
        <ele>7.34717</ele>
        <time>2012-06-20T16:32:49Z</time>
      </trkpt>
      <trkpt lat="60.0975594" lon="19.9439538">
        <ele>9.2699</ele>
        <time>2012-06-20T16:32:54Z</time>
      </trkpt>
      <trkpt lat="60.097599" lon="19.9438178">
        <ele>10.2312</ele>
        <time>2012-06-20T16:32:57Z</time>
      </trkpt>
      <trkpt lat="60.0975824" lon="19.9435407">
        <ele>11.1925</ele>
        <time>2012-06-20T16:33:02Z</time>
      </trkpt>
      <trkpt lat="60.0975299" lon="19.943238">
        <ele>10.7118</ele>
        <time>2012-06-20T16:33:08Z</time>
      </trkpt>
      <trkpt lat="60.0975526" lon="19.9429838">
        <ele>9.75061</ele>
        <time>2012-06-20T16:33:13Z</time>
      </trkpt>
      <trkpt lat="60.0975479" lon="19.9427335">
        <ele>10.2312</ele>
        <time>2012-06-20T16:33:18Z</time>
      </trkpt>
      <trkpt lat="60.0975137" lon="19.9423432">
        <ele>11.6732</ele>
        <time>2012-06-20T16:33:25Z</time>
      </trkpt>
      <trkpt lat="60.0975113" lon="19.94204">
        <ele>12.1538</ele>
        <time>2012-06-20T16:33:31Z</time>
      </trkpt>
      <trkpt lat="60.097492" lon="19.9417427">
        <ele>11.6732</ele>
        <time>2012-06-20T16:33:37Z</time>
      </trkpt>
      <trkpt lat="60.0974599" lon="19.9414381">
        <ele>11.1925</ele>
        <time>2012-06-20T16:33:42Z</time>
      </trkpt>
      <trkpt lat="60.0974438" lon="19.9411314">
        <ele>11.6732</ele>
        <time>2012-06-20T16:33:47Z</time>
      </trkpt>
      <trkpt lat="60.097424" lon="19.940878">
        <ele>10.7118</ele>
        <time>2012-06-20T16:33:51Z</time>
      </trkpt>
      <trkpt lat="60.0974053" lon="19.9405844">
        <ele>11.1925</ele>
        <time>2012-06-20T16:33:56Z</time>
      </trkpt>
      <trkpt lat="60.0973915" lon="19.9403026">
        <ele>13.1151</ele>
        <time>2012-06-20T16:34:01Z</time>
      </trkpt>
      <trkpt lat="60.0973692" lon="19.9400245">
        <ele>12.6344</ele>
        <time>2012-06-20T16:34:06Z</time>
      </trkpt>
      <trkpt lat="60.0973375" lon="19.9396826">
        <ele>12.1538</ele>
        <time>2012-06-20T16:34:12Z</time>
      </trkpt>
      <trkpt lat="60.0972838" lon="19.9392836">
        <ele>10.7118</ele>
        <time>2012-06-20T16:34:19Z</time>
      </trkpt>
      <trkpt lat="60.0972745" lon="19.9391874">
        <ele>10.2312</ele>
        <time>2012-06-20T16:34:21Z</time>
      </trkpt>
      <trkpt lat="60.0972706" lon="19.9390014">
        <ele>10.2312</ele>
        <time>2012-06-20T16:34:33Z</time>
      </trkpt>
      <trkpt lat="60.0972623" lon="19.9386376">
        <ele>9.75061</ele>
        <time>2012-06-20T16:34:40Z</time>
      </trkpt>
      <trkpt lat="60.0972584" lon="19.9383928">
        <ele>11.1925</ele>
        <time>2012-06-20T16:34:45Z</time>
      </trkpt>
      <trkpt lat="60.0972667" lon="19.9381571">
        <ele>11.6732</ele>
        <time>2012-06-20T16:34:50Z</time>
      </trkpt>
      <trkpt lat="60.0972593" lon="19.9379783">
        <ele>11.1925</ele>
        <time>2012-06-20T16:34:53Z</time>
      </trkpt>
      <trkpt lat="60.097215" lon="19.9375816">
        <ele>13.1151</ele>
        <time>2012-06-20T16:35:00Z</time>
      </trkpt>
      <trkpt lat="60.0971872" lon="19.9372152">
        <ele>14.557</ele>
        <time>2012-06-20T16:35:06Z</time>
      </trkpt>
      <trkpt lat="60.0971656" lon="19.936852">
        <ele>14.557</ele>
        <time>2012-06-20T16:35:12Z</time>
      </trkpt>
      <trkpt lat="60.0971609" lon="19.9365181">
        <ele>14.557</ele>
        <time>2012-06-20T16:35:18Z</time>
      </trkpt>
      <trkpt lat="60.0971086" lon="19.936248">
        <ele>18.4023</ele>
        <time>2012-06-20T16:35:22Z</time>
      </trkpt>
      <trkpt lat="60.0971191" lon="19.935975">
        <ele>17.4412</ele>
        <time>2012-06-20T16:35:27Z</time>
      </trkpt>
      <trkpt lat="60.0971057" lon="19.9355643">
        <ele>16.9604</ele>
        <time>2012-06-20T16:35:34Z</time>
      </trkpt>
      <trkpt lat="60.0970955" lon="19.9352903">
        <ele>16.9604</ele>
        <time>2012-06-20T16:35:39Z</time>
      </trkpt>
      <trkpt lat="60.0970802" lon="19.9350013">
        <ele>15.5184</ele>
        <time>2012-06-20T16:35:44Z</time>
      </trkpt>
      <trkpt lat="60.0970735" lon="19.9347159">
        <ele>15.0377</ele>
        <time>2012-06-20T16:35:49Z</time>
      </trkpt>
      <trkpt lat="60.0970388" lon="19.9343214">
        <ele>15.0377</ele>
        <time>2012-06-20T16:35:56Z</time>
      </trkpt>
      <trkpt lat="60.0970153" lon="19.9339745">
        <ele>15.5184</ele>
        <time>2012-06-20T16:36:02Z</time>
      </trkpt>
      <trkpt lat="60.097005" lon="19.9335971">
        <ele>14.0764</ele>
        <time>2012-06-20T16:36:09Z</time>
      </trkpt>
      <trkpt lat="60.0969751" lon="19.9332951">
        <ele>12.1538</ele>
        <time>2012-06-20T16:36:14Z</time>
      </trkpt>
      <trkpt lat="60.0969417" lon="19.9328995">
        <ele>13.5958</ele>
        <time>2012-06-20T16:36:20Z</time>
      </trkpt>
      <trkpt lat="60.0969357" lon="19.9326242">
        <ele>12.6344</ele>
        <time>2012-06-20T16:36:25Z</time>
      </trkpt>
      <trkpt lat="60.0969336" lon="19.9323704">
        <ele>13.1151</ele>
        <time>2012-06-20T16:36:30Z</time>
      </trkpt>
      <trkpt lat="60.0969088" lon="19.9320396">
        <ele>13.5958</ele>
        <time>2012-06-20T16:36:35Z</time>
      </trkpt>
      <trkpt lat="60.0968839" lon="19.9317402">
        <ele>14.0764</ele>
        <time>2012-06-20T16:36:40Z</time>
      </trkpt>
      <trkpt lat="60.0968761" lon="19.9314441">
        <ele>12.6344</ele>
        <time>2012-06-20T16:36:45Z</time>
      </trkpt>
      <trkpt lat="60.0968811" lon="19.9313297">
        <ele>13.1151</ele>
        <time>2012-06-20T16:36:47Z</time>
      </trkpt>
      <trkpt lat="60.0969678" lon="19.9311627">
        <ele>16.4797</ele>
        <time>2012-06-20T16:36:52Z</time>
      </trkpt>
      <trkpt lat="60.0972105" lon="19.9311578">
        <ele>15.5184</ele>
        <time>2012-06-20T16:37:00Z</time>
      </trkpt>
      <trkpt lat="60.0973278" lon="19.9311489">
        <ele>14.0764</ele>
        <time>2012-06-20T16:37:05Z</time>
      </trkpt>
      <trkpt lat="60.097475" lon="19.9311259">
        <ele>16.4797</ele>
        <time>2012-06-20T16:37:10Z</time>
      </trkpt>
      <trkpt lat="60.0976541" lon="19.9310613">
        <ele>17.4412</ele>
        <time>2012-06-20T16:37:16Z</time>
      </trkpt>
      <trkpt lat="60.0977917" lon="19.9310323">
        <ele>15.999</ele>
        <time>2012-06-20T16:37:21Z</time>
      </trkpt>
      <trkpt lat="60.0979582" lon="19.931014">
        <ele>15.0377</ele>
        <time>2012-06-20T16:37:27Z</time>
      </trkpt>
      <trkpt lat="60.098096" lon="19.9309751">
        <ele>14.0764</ele>
        <time>2012-06-20T16:37:32Z</time>
      </trkpt>
      <trkpt lat="60.098238" lon="19.9309572">
        <ele>14.0764</ele>
        <time>2012-06-20T16:37:37Z</time>
      </trkpt>
      <trkpt lat="60.0983752" lon="19.930907">
        <ele>13.1151</ele>
        <time>2012-06-20T16:37:42Z</time>
      </trkpt>
      <trkpt lat="60.0985356" lon="19.9308753">
        <ele>11.6732</ele>
        <time>2012-06-20T16:37:48Z</time>
      </trkpt>
      <trkpt lat="60.0986638" lon="19.9308474">
        <ele>10.7118</ele>
        <time>2012-06-20T16:37:53Z</time>
      </trkpt>
      <trkpt lat="60.0987953" lon="19.9308121">
        <ele>10.2312</ele>
        <time>2012-06-20T16:37:58Z</time>
      </trkpt>
      <trkpt lat="60.0990244" lon="19.9306961">
        <ele>5.90527</ele>
        <time>2012-06-20T16:38:04Z</time>
      </trkpt>
      <trkpt lat="60.0991732" lon="19.930665">
        <ele>8.78918</ele>
        <time>2012-06-20T16:38:09Z</time>
      </trkpt>
      <trkpt lat="60.0993303" lon="19.9306428">
        <ele>8.30859</ele>
        <time>2012-06-20T16:38:15Z</time>
      </trkpt>
      <trkpt lat="60.099464" lon="19.9306056">
        <ele>10.7118</ele>
        <time>2012-06-20T16:38:20Z</time>
      </trkpt>
      <trkpt lat="60.0995661" lon="19.9305882">
        <ele>10.7118</ele>
        <time>2012-06-20T16:38:24Z</time>
      </trkpt>
      <trkpt lat="60.0997254" lon="19.9305638">
        <ele>12.6344</ele>
        <time>2012-06-20T16:38:30Z</time>
      </trkpt>
      <trkpt lat="60.0998685" lon="19.9305366">
        <ele>15.5184</ele>
        <time>2012-06-20T16:38:35Z</time>
      </trkpt>
      <trkpt lat="60.0999203" lon="19.9305345">
        <ele>15.999</ele>
        <time>2012-06-20T16:38:37Z</time>
      </trkpt>
    </trkseg>
  </trk>
</gpx>